createdAt,value
2023-01-03T00:01:58.376Z,99168.34
2023-01-03T00:04:24.952Z,99173.94
2023-01-03T00:06:52.862Z,99174.16
2023-01-03T00:09:22.567Z,99173.88
2023-01-03T00:12:08.331Z,99168.53
2023-01-03T00:14:36.789Z,99174.91
2023-01-03T00:17:04.139Z,99164.72
2023-01-03T00:19:33.069Z,99161.06
2023-01-03T00:21:59.563Z,99165.06
2023-01-03T00:24:26.016Z,99166.34
2023-01-03T00:26:52.524Z,99174.03
2023-01-03T00:29:19.061Z,99176.13
2023-01-03T00:31:45.518Z,99174.53
2023-01-03T00:34:11.969Z,99177.13
2023-01-03T00:36:38.484Z,99175.25
2023-01-03T00:39:05.011Z,99192.81
2023-01-03T00:41:31.558Z,99198.63
2023-01-03T00:43:58.116Z,99194.34
2023-01-03T00:46:24.613Z,99201.19
2023-01-03T00:48:51.087Z,99199.59
2023-01-03T00:51:27.924Z,99194.50
2023-01-03T00:53:56.371Z,99194.44
2023-01-03T00:56:24.377Z,99204.59
2023-01-03T00:58:50.905Z,99219.00
2023-01-03T01:01:24.079Z,99214.47
2023-01-03T01:03:56.771Z,99219.25
2023-01-03T01:06:25.846Z,99217.84
2023-01-03T01:08:53.979Z,99226.09
2023-01-03T01:11:20.643Z,99227.97
2023-01-03T01:13:47.328Z,99224.50
2023-01-03T01:16:16.160Z,99231.91
2023-01-03T01:18:43.421Z,99230.53
2023-01-03T01:21:12.449Z,99230.78
2023-01-03T01:23:39.877Z,99229.97
2023-01-03T01:26:07.020Z,99244.34
2023-01-03T01:28:33.628Z,99231.28
2023-01-03T01:31:00.851Z,99236.03
2023-01-03T01:33:27.467Z,99246.94
2023-01-03T01:35:54.092Z,99257.03
2023-01-03T01:38:20.565Z,99255.41
2023-01-03T01:40:47.062Z,99255.66
2023-01-03T01:43:42.095Z,99252.44
2023-01-03T01:46:17.490Z,99255.91
2023-01-03T01:48:43.967Z,99255.31
2023-01-03T01:51:10.406Z,99254.75
2023-01-03T01:53:36.845Z,99263.56
2023-01-03T01:56:23.906Z,99259.75
2023-01-03T01:58:51.387Z,99259.66
2023-01-03T02:01:19.733Z,99263.72
2023-01-03T02:03:47.975Z,99265.00
2023-01-03T02:06:15.402Z,99267.91
2023-01-03T02:08:41.871Z,99272.44
2023-01-03T02:11:42.296Z,99276.31
2023-01-03T02:14:32.329Z,99285.38
2023-01-03T02:17:45.315Z,99288.03
2023-01-03T02:20:31.447Z,99283.97
2023-01-03T02:23:21.687Z,99287.94
2023-01-03T02:26:29.690Z,99294.53
2023-01-03T02:29:08.209Z,99293.75
2023-01-03T02:31:54.167Z,99300.13
2023-01-03T02:34:48.131Z,99299.06
2023-01-03T02:37:26.633Z,99298.50
2023-01-03T02:39:58.665Z,99297.69
2023-01-03T02:42:52.138Z,99302.19
2023-01-03T02:45:29.195Z,99298.97
2023-01-03T02:48:03.400Z,99301.38
2023-01-03T02:50:31.252Z,99291.22
2023-01-03T02:53:00.814Z,99286.13
2023-01-03T02:55:28.488Z,99295.75
2023-01-03T02:58:13.661Z,99291.69
2023-01-03T03:00:42.714Z,99292.75
2023-01-03T03:03:12.375Z,99290.06
2023-01-03T03:05:45.813Z,99280.06
2023-01-03T03:08:12.792Z,99289.31
2023-01-03T03:10:57.694Z,99284.06
2023-01-03T03:13:35.772Z,99287.44
2023-01-03T03:16:05.828Z,99290.75
2023-01-03T03:18:55.330Z,99291.09
2023-01-03T03:21:40.404Z,99297.03
2023-01-03T03:24:29.511Z,99295.97
2023-01-03T03:26:56.056Z,99298.88
2023-01-03T03:29:22.520Z,99297.03
2023-01-03T03:31:50.223Z,99297.03
2023-01-03T03:34:25.510Z,99301.84
2023-01-03T03:37:10.853Z,99300.91
2023-01-03T03:39:55.978Z,99292.19
2023-01-03T03:42:47.744Z,99290.19
2023-01-03T03:45:28.499Z,99306.00
2023-01-03T03:48:21.084Z,99301.66
2023-01-03T03:50:49.902Z,99298.41
2023-01-03T03:53:16.545Z,99302.44
2023-01-03T03:55:50.007Z,99301.66
2023-01-03T03:58:37.333Z,99295.25
2023-01-03T04:01:03.799Z,99295.25
2023-01-03T04:03:30.339Z,99299.78
2023-01-03T04:06:07.081Z,99303.50
2023-01-03T04:08:33.533Z,99306.16
2023-01-03T04:11:06.114Z,99300.59
2023-01-03T04:13:36.538Z,99311.84
2023-01-03T04:16:03.554Z,99314.84
2023-01-03T04:18:30.389Z,99317.25
2023-01-03T04:20:57.364Z,99322.59
2023-01-03T04:23:23.836Z,99328.47
2023-01-03T04:25:50.387Z,99320.97
2023-01-03T04:28:17.193Z,99330.59
2023-01-03T04:30:43.653Z,99330.59
2023-01-03T04:33:10.426Z,99323.88
2023-01-03T04:35:36.867Z,99327.34
2023-01-03T04:38:03.672Z,99328.66
2023-01-03T04:40:30.395Z,99328.09
2023-01-03T04:43:15.492Z,99333.19
2023-01-03T04:45:42.015Z,99333.81
2023-01-03T04:48:08.529Z,99334.97
2023-01-03T04:50:34.987Z,99332.38
2023-01-03T04:53:01.461Z,99330.28
2023-01-03T04:55:27.921Z,99341.50
2023-01-03T04:57:54.390Z,99332.97
2023-01-03T05:00:20.879Z,99332.16
2023-01-03T05:02:47.643Z,99335.63
2023-01-03T05:05:14.121Z,99338.50
2023-01-03T05:07:40.575Z,99335.03
2023-01-03T05:10:07.288Z,99338.50
2023-01-03T05:12:33.755Z,99336.09
2023-01-03T05:15:00.208Z,99336.91
2023-01-03T05:17:26.666Z,99337.97
2023-01-03T05:20:11.367Z,99340.38
2023-01-03T05:22:56.721Z,99343.63
2023-01-03T05:25:41.653Z,99341.50
2023-01-03T05:28:12.367Z,99346.59
2023-01-03T05:30:43.455Z,99339.44
2023-01-03T05:33:09.904Z,99340.78
2023-01-03T05:35:36.345Z,99345.31
2023-01-03T05:38:02.798Z,99347.19
2023-01-03T05:40:29.271Z,99358.91
2023-01-03T05:42:55.726Z,99357.06
2023-01-03T05:45:25.668Z,99354.28
2023-01-03T05:47:52.239Z,99353.72
2023-01-03T05:50:18.820Z,99347.22
2023-01-03T05:52:45.316Z,99366.75
2023-01-03T05:55:11.768Z,99366.03
2023-01-03T05:57:38.249Z,99371.19
2023-01-03T06:00:05.033Z,99370.72
2023-01-03T06:02:31.572Z,99377.41
2023-01-03T06:04:58.048Z,99379.84
2023-01-03T06:07:24.512Z,99378.00
2023-01-03T06:09:50.991Z,99387.63
2023-01-03T06:12:17.474Z,99391.34
2023-01-03T06:14:43.928Z,99384.28
2023-01-03T06:17:28.870Z,99397.16
2023-01-03T06:19:55.420Z,99398.75
2023-01-03T06:22:22.006Z,99400.06
2023-01-03T06:24:48.484Z,99404.09
2023-01-03T06:27:14.963Z,99398.19
2023-01-03T06:29:41.407Z,99396.34
2023-01-03T06:32:09.806Z,99398.75
2023-01-03T06:34:36.918Z,99405.72
2023-01-03T06:37:03.386Z,99403.53
2023-01-03T06:39:29.906Z,99415.25
2023-01-03T06:41:56.360Z,99413.06
2023-01-03T06:44:23.417Z,99410.06
2023-01-03T06:47:08.397Z,99415.97
2023-01-03T06:49:53.512Z,99415.25
2023-01-03T06:52:38.374Z,99416.63
2023-01-03T06:55:05.152Z,99416.63
2023-01-03T06:57:31.778Z,99414.78
2023-01-03T06:59:58.226Z,99420.91
2023-01-03T07:02:24.967Z,99417.19
2023-01-03T07:04:51.743Z,99424.63
2023-01-03T07:07:18.345Z,99415.03
2023-01-03T07:09:44.806Z,99416.88
2023-01-03T07:12:29.766Z,99421.16
2023-01-03T07:14:56.234Z,99408.63
2023-01-03T07:17:22.720Z,99413.50
2023-01-03T07:19:49.198Z,99415.94
2023-01-03T07:22:15.686Z,99420.69
2023-01-03T07:24:42.138Z,99424.38
2023-01-03T07:27:08.585Z,99434.03
2023-01-03T07:29:35.066Z,99436.59
2023-01-03T07:32:01.577Z,99436.81
2023-01-03T07:34:31.967Z,99438.34
2023-01-03T07:36:58.424Z,99443.94
2023-01-03T07:39:24.927Z,99448.81
2023-01-03T07:42:09.848Z,99453.88
2023-01-03T07:44:36.298Z,99457.47
2023-01-03T07:47:02.786Z,99461.28
2023-01-03T07:49:29.367Z,99468.59
2023-01-03T07:51:55.831Z,99465.19
2023-01-03T07:54:22.303Z,99464.91
2023-01-03T07:56:48.759Z,99467.41
2023-01-03T07:59:15.236Z,99468.94
2023-01-03T08:01:41.759Z,99474.81
2023-01-03T08:04:08.583Z,99477.50
2023-01-03T08:06:35.070Z,99473.69
2023-01-03T08:09:20.378Z,99476.84
2023-01-03T08:12:05.244Z,99478.69
2023-01-03T08:14:31.826Z,99478.47
2023-01-03T08:16:58.303Z,99479.00
2023-01-03T08:19:24.834Z,99484.59
2023-01-03T08:21:51.320Z,99487.72
2023-01-03T08:24:17.779Z,99490.41
2023-01-03T08:26:44.303Z,99496.09
2023-01-03T08:29:11.159Z,99490.44
2023-01-03T08:31:40.412Z,99488.22
2023-01-03T08:34:13.571Z,99490.66
2023-01-03T08:36:46.041Z,99490.78
2023-01-03T08:39:14.664Z,99491.75
2023-01-03T08:41:46.546Z,99494.31
2023-01-03T08:44:13.078Z,99492.47
2023-01-03T08:46:42.903Z,99477.97
2023-01-03T08:49:09.792Z,99486.78
2023-01-03T08:51:36.256Z,99492.47
2023-01-03T08:54:02.751Z,99493.81
2023-01-03T08:56:29.466Z,99490.13
2023-01-03T08:58:57.745Z,99491.31
2023-01-03T09:01:25.171Z,99488.88
2023-01-03T09:03:51.961Z,99496.66
2023-01-03T09:06:18.632Z,99498.31
2023-01-03T09:08:45.112Z,99503.94
2023-01-03T09:11:11.678Z,99501.16
2023-01-03T09:13:38.289Z,99497.00
2023-01-03T09:16:06.444Z,99501.03
2023-01-03T09:18:33.668Z,99500.22
2023-01-03T09:21:00.432Z,99503.69
2023-01-03T09:23:26.905Z,99504.66
2023-01-03T09:25:53.389Z,99513.81
2023-01-03T09:28:19.876Z,99514.88
2023-01-03T09:30:46.327Z,99509.53
2023-01-03T09:33:12.782Z,99516.16
2023-01-03T09:35:39.391Z,99515.81
2023-01-03T09:38:05.921Z,99519.75
2023-01-03T09:40:36.083Z,99515.81
2023-01-03T09:43:19.834Z,99520.66
2023-01-03T09:46:00.151Z,99524.63
2023-01-03T09:48:44.902Z,99528.34
2023-01-03T09:51:37.935Z,99526.69
2023-01-03T09:54:23.058Z,99523.69
2023-01-03T09:57:08.061Z,99513.03
2023-01-03T09:59:55.522Z,99515.34
2023-01-03T10:03:07.051Z,99507.25
2023-01-03T10:05:45.777Z,99509.47
2023-01-03T10:08:21.751Z,99505.75
2023-01-03T10:11:09.416Z,99507.50
2023-01-03T10:13:54.032Z,99503.19
2023-01-03T10:16:36.303Z,99503.44
2023-01-03T10:19:11.870Z,99510.72
2023-01-03T10:22:00.131Z,99504.69
2023-01-03T10:24:30.673Z,99510.63
2023-01-03T10:27:11.797Z,99506.78
2023-01-03T10:29:38.280Z,99508.88
2023-01-03T10:32:35.869Z,99500.50
2023-01-03T10:35:22.485Z,99502.72
2023-01-03T10:37:52.817Z,99500.06
2023-01-03T10:40:19.838Z,99494.59
2023-01-03T10:42:46.511Z,99495.19
2023-01-03T10:45:17.087Z,99488.09
2023-01-03T10:47:43.666Z,99480.91
2023-01-03T10:50:21.554Z,99479.84
2023-01-03T10:52:48.117Z,99473.50
2023-01-03T10:55:16.408Z,99472.44
2023-01-03T10:57:48.271Z,99461.44
2023-01-03T11:00:32.194Z,99469.78
2023-01-03T11:03:18.037Z,99466.63
2023-01-03T11:05:46.756Z,99465.81
2023-01-03T11:08:20.514Z,99464.88
2023-01-03T11:10:53.723Z,99454.78
2023-01-03T11:13:38.960Z,99455.69
2023-01-03T11:16:16.245Z,99454.41
2023-01-03T11:18:43.069Z,99454.97
2023-01-03T11:21:26.119Z,99448.38
2023-01-03T11:24:24.636Z,99444.66
2023-01-03T11:26:51.599Z,99440.47
2023-01-03T11:29:36.306Z,99447.97
2023-01-03T11:32:23.717Z,99440.31
2023-01-03T11:35:24.405Z,99443.56
2023-01-03T11:38:01.197Z,99439.03
2023-01-03T11:40:59.387Z,99436.13
2023-01-03T11:43:53.418Z,99439.03
2023-01-03T11:46:55.035Z,99443.06
2023-01-03T11:49:35.840Z,99442.75
2023-01-03T11:52:30.185Z,99442.75
2023-01-03T11:55:15.409Z,99430.34
2023-01-03T11:58:12.899Z,99433.41
2023-01-03T12:00:56.150Z,99433.09
2023-01-03T12:04:00.410Z,99422.31
2023-01-03T12:06:49.040Z,99424.41
2023-01-03T12:09:32.952Z,99429.25
2023-01-03T12:12:23.012Z,99432.19
2023-01-03T12:15:23.042Z,99424.72
2023-01-03T12:18:13.492Z,99432.50
2023-01-03T12:20:41.797Z,99423.94
2023-01-03T12:23:27.443Z,99427.16
2023-01-03T12:25:56.060Z,99418.13
2023-01-03T12:28:41.239Z,99416.50
2023-01-03T12:31:13.163Z,99414.41
2023-01-03T12:33:48.316Z,99414.41
2023-01-03T12:36:52.926Z,99405.81
2023-01-03T12:39:41.850Z,99399.34
2023-01-03T12:42:29.202Z,99400.47
2023-01-03T12:45:18.258Z,99395.81
2023-01-03T12:47:56.892Z,99396.47
2023-01-03T12:50:40.446Z,99397.41
2023-01-03T12:53:19.418Z,99396.69
2023-01-03T12:56:02.023Z,99395.41
2023-01-03T12:58:53.150Z,99400.16
2023-01-03T13:01:39.178Z,99402.69
2023-01-03T13:04:22.644Z,99402.06
2023-01-03T13:06:58.989Z,99395.44
2023-01-03T13:09:31.868Z,99390.31
2023-01-03T13:12:02.610Z,99390.81
2023-01-03T13:14:29.129Z,99389.69
2023-01-03T13:16:56.900Z,99391.53
2023-01-03T13:19:23.209Z,99383.75
2023-01-03T13:21:52.603Z,99376.91
2023-01-03T13:24:41.823Z,99373.66
2023-01-03T13:27:35.203Z,99372.88
2023-01-03T13:30:01.677Z,99377.63
2023-01-03T13:32:34.637Z,99375.75
2023-01-03T13:35:04.324Z,99368.25
2023-01-03T13:37:36.441Z,99360.00
2023-01-03T13:41:07.621Z,99363.13
2023-01-03T13:43:22.130Z,99365.00
2023-01-03T13:45:50.306Z,99370.81
2023-01-03T13:48:24.582Z,99362.59
2023-01-03T13:51:30.284Z,99367.19
2023-01-03T13:54:11.940Z,99375.03
2023-01-03T13:56:44.229Z,99370.03
2023-01-03T13:59:24.177Z,99375.94
2023-01-03T14:02:09.573Z,99381.84
2023-01-03T14:04:57.116Z,99369.56
2023-01-03T14:07:47.650Z,99370.34
2023-01-03T14:10:20.034Z,99369.03
2023-01-03T14:13:12.351Z,99369.63
2023-01-03T14:15:38.838Z,99368.56
2023-01-03T14:18:14.035Z,99373.66
2023-01-03T14:20:45.369Z,99375.78
2023-01-03T14:23:48.730Z,99371.97
2023-01-03T14:26:04.706Z,99371.41
2023-01-03T14:28:32.465Z,99378.63
2023-01-03T14:31:06.746Z,99383.13
2023-01-03T14:34:11.440Z,99385.47
2023-01-03T14:36:45.954Z,99386.03
2023-01-03T14:39:20.654Z,99378.91
2023-01-03T14:41:47.144Z,99386.91
2023-01-03T14:44:13.423Z,99384.59
2023-01-03T14:46:41.619Z,99390.72
2023-01-03T14:49:21.271Z,99390.72
2023-01-03T14:51:47.791Z,99388.56
2023-01-03T14:54:16.099Z,99386.69
2023-01-03T14:56:44.797Z,99399.25
2023-01-03T14:59:11.299Z,99398.66
2023-01-03T15:01:37.976Z,99395.44
2023-01-03T15:04:05.105Z,99398.41
2023-01-03T15:06:32.110Z,99408.59
2023-01-03T15:09:12.364Z,99405.13
2023-01-03T15:11:56.104Z,99403.53
2023-01-03T15:14:30.359Z,99407.00
2023-01-03T15:17:09.526Z,99406.19
2023-01-03T15:19:36.195Z,99404.56
2023-01-03T15:22:17.193Z,99402.94
2023-01-03T15:24:45.015Z,99402.63
2023-01-03T15:27:39.538Z,99405.78
2023-01-03T15:30:14.904Z,99398.50
2023-01-03T15:33:05.870Z,99389.34
2023-01-03T15:35:36.565Z,99401.97
2023-01-03T15:38:03.502Z,99397.44
2023-01-03T15:40:30.642Z,99403.53
2023-01-03T15:43:19.657Z,99407.31
2023-01-03T15:45:49.972Z,99408.44
2023-01-03T15:48:19.234Z,99390.88
2023-01-03T15:50:52.736Z,99395.41
2023-01-03T15:53:36.631Z,99393.56
2023-01-03T15:56:24.335Z,99404.00
2023-01-03T15:58:52.011Z,99403.75
2023-01-03T16:01:19.107Z,99400.03
2023-01-03T16:06:12.003Z,99392.91
2023-01-03T16:08:39.197Z,99390.34
2023-01-03T16:11:09.485Z,99389.94
2023-01-03T16:13:38.901Z,99381.34
2023-01-03T16:16:05.726Z,99385.63
2023-01-03T16:18:42.058Z,99383.22
2023-01-03T16:21:08.567Z,99385.31
2023-01-03T16:23:35.176Z,99385.31
2023-01-03T16:26:01.921Z,99398.09
2023-01-03T16:28:28.658Z,99395.19
2023-01-03T16:31:15.999Z,99391.94
2023-01-03T16:33:42.792Z,99385.72
2023-01-03T16:36:21.594Z,99380.84
2023-01-03T16:38:48.291Z,99387.25
2023-01-03T16:41:14.768Z,99390.19
2023-01-03T16:43:41.233Z,99388.78
2023-01-03T16:46:09.516Z,99386.63
2023-01-03T16:48:40.424Z,99392.75
2023-01-03T16:51:06.880Z,99388.72
2023-01-03T16:53:37.168Z,99378.50
2023-01-03T16:56:04.239Z,99383.13
2023-01-03T16:58:30.700Z,99384.44
2023-01-03T17:00:57.469Z,99386.03
2023-01-03T17:03:24.035Z,99378.84
2023-01-03T17:05:50.626Z,99378.44
2023-01-03T17:08:35.339Z,99380.72
2023-01-03T17:11:01.950Z,99383.28
2023-01-03T17:13:31.371Z,99383.94
2023-01-03T17:15:58.096Z,99383.75
2023-01-03T17:18:26.360Z,99381.16
2023-01-03T17:20:57.921Z,99375.34
2023-01-03T17:23:24.793Z,99373.88
2023-01-03T17:25:51.513Z,99372.34
2023-01-03T17:28:19.828Z,99376.16
2023-01-03T17:30:46.367Z,99371.63
2023-01-03T17:33:14.773Z,99371.34
2023-01-03T17:35:41.439Z,99362.53
2023-01-03T17:38:25.805Z,99365.22
2023-01-03T17:40:55.102Z,99367.63
2023-01-03T17:43:23.114Z,99368.94
2023-01-03T17:46:08.628Z,99369.16
2023-01-03T17:48:53.586Z,99367.00
2023-01-03T17:51:20.045Z,99365.38
2023-01-03T17:53:46.600Z,99362.16
2023-01-03T17:56:17.391Z,99374.09
2023-01-03T17:58:43.943Z,99375.16
2023-01-03T18:01:12.334Z,99367.88
2023-01-03T18:03:39.163Z,99375.88
2023-01-03T18:06:10.076Z,99377.75
2023-01-03T18:08:36.591Z,99370.81
2023-01-03T18:11:03.049Z,99363.13
2023-01-03T18:13:34.302Z,99365.84
2023-01-03T18:16:00.838Z,99372.09
2023-01-03T18:18:27.742Z,99365.47
2023-01-03T18:20:54.435Z,99362.28
2023-01-03T18:23:35.232Z,99363.34
2023-01-03T18:26:04.272Z,99362.28
2023-01-03T18:28:30.761Z,99361.72
2023-01-03T18:30:57.361Z,99363.34
2023-01-03T18:33:24.420Z,99359.28
2023-01-03T18:35:52.629Z,99358.75
2023-01-03T18:38:28.909Z,99359.00
2023-01-03T18:41:00.729Z,99360.59
2023-01-03T18:43:30.700Z,99365.16
2023-01-03T18:45:57.436Z,99363.75
2023-01-03T18:48:23.984Z,99363.28
2023-01-03T18:50:57.886Z,99352.00
2023-01-03T18:53:25.900Z,99354.78
2023-01-03T18:55:52.371Z,99357.19
2023-01-03T18:58:42.695Z,99356.38
2023-01-03T19:01:09.318Z,99354.78
2023-01-03T19:03:36.944Z,99344.56
2023-01-03T19:06:06.380Z,99339.22
2023-01-03T19:08:33.102Z,99342.66
2023-01-03T19:11:04.369Z,99340.19
2023-01-03T19:13:31.129Z,99338.00
2023-01-03T19:15:57.662Z,99338.00
2023-01-03T19:18:24.194Z,99326.47
2023-01-03T19:20:50.667Z,99326.13
2023-01-03T19:23:24.990Z,99331.47
2023-01-03T19:25:51.514Z,99335.53
2023-01-03T19:28:23.016Z,99329.19
2023-01-03T19:30:49.647Z,99318.34
2023-01-03T19:33:16.322Z,99319.47
2023-01-03T19:35:43.301Z,99312.25
2023-01-03T19:38:09.851Z,99307.97
2023-01-03T19:40:37.571Z,99307.19
2023-01-03T19:43:04.072Z,99300.44
2023-01-03T19:45:33.010Z,99298.03
2023-01-03T19:48:01.022Z,99292.94
2023-01-03T19:50:31.909Z,99298.38
2023-01-03T19:52:58.407Z,99298.38
2023-01-03T19:55:27.541Z,99301.97
2023-01-03T19:57:54.029Z,99293.66
2023-01-03T20:00:28.136Z,99302.22
2023-01-03T20:02:58.651Z,99300.38
2023-01-03T20:05:26.741Z,99300.38
2023-01-03T20:07:53.281Z,99299.56
2023-01-03T20:10:24.257Z,99300.28
2023-01-03T20:12:53.361Z,99293.84
2023-01-03T20:15:30.970Z,99285.53
2023-01-03T20:17:57.551Z,99277.75
2023-01-03T20:20:25.257Z,99286.28
2023-01-03T20:23:04.666Z,99280.34
2023-01-03T20:25:32.624Z,99275.34
2023-01-03T20:28:09.853Z,99278.06
2023-01-03T20:30:36.367Z,99276.03
2023-01-03T20:33:02.907Z,99271.25
2023-01-03T20:38:21.192Z,99271.50
2023-01-03T20:40:47.651Z,99271.25
2023-01-03T20:43:14.595Z,99263.47
2023-01-03T20:45:41.051Z,99269.84
2023-01-03T20:48:17.883Z,99266.16
2023-01-03T20:50:47.569Z,99261.84
2023-01-03T20:53:19.678Z,99260.50
2023-01-03T20:55:46.680Z,99258.63
2023-01-03T20:58:14.938Z,99256.75
2023-01-03T21:00:41.426Z,99254.91
2023-01-03T21:03:08.886Z,99246.41
2023-01-03T21:05:36.507Z,99242.91
2023-01-03T21:08:22.249Z,99234.91
2023-01-03T21:10:52.740Z,99229.00
2023-01-03T21:13:20.616Z,99222.53
2023-01-03T21:15:48.015Z,99223.03
2023-01-03T21:18:14.568Z,99217.13
2023-01-03T21:20:41.202Z,99213.34
2023-01-03T21:23:22.141Z,99212.31
2023-01-03T21:25:48.714Z,99213.34
2023-01-03T21:28:16.143Z,99206.09
2023-01-03T21:30:42.656Z,99204.19
2023-01-03T21:33:18.566Z,99198.25
2023-01-03T21:38:12.440Z,99199.81
2023-01-03T21:40:38.900Z,99197.88
2023-01-03T21:43:06.058Z,99193.28
2023-01-03T21:45:36.277Z,99185.78
2023-01-03T21:48:04.862Z,99185.47
2023-01-03T21:50:31.776Z,99178.75
2023-01-03T21:52:58.299Z,99177.16
2023-01-03T21:55:24.880Z,99160.00
2023-01-03T21:57:51.455Z,99167.22
2023-01-03T22:00:18.189Z,99160.28
2023-01-03T22:03:03.489Z,99154.44
2023-01-03T22:05:30.268Z,99162.34
2023-01-03T22:07:56.746Z,99158.09
2023-01-03T22:10:24.073Z,99153.75
2023-01-03T22:12:57.044Z,99154.53
2023-01-03T22:15:24.495Z,99162.56
2023-01-03T22:17:51.195Z,99161.91
2023-01-03T22:20:18.290Z,99161.66
2023-01-03T22:22:44.860Z,99156.31
2023-01-03T22:25:13.339Z,99151.41
2023-01-03T22:27:39.806Z,99165.03
2023-01-03T22:30:08.291Z,99173.03
2023-01-03T22:32:34.810Z,99161.31
2023-01-03T22:35:01.274Z,99159.47
2023-01-03T22:37:27.884Z,99169.56
2023-01-03T22:39:54.350Z,99162.06
2023-01-03T22:42:21.125Z,99155.03
2023-01-03T22:44:47.623Z,99160.13
2023-01-03T22:47:14.102Z,99173.81
2023-01-03T22:49:40.560Z,99156.47
2023-01-03T22:52:07.065Z,99157.84
2023-01-03T22:54:35.216Z,99154.94
2023-01-03T22:57:01.850Z,99140.03
2023-01-03T22:59:30.185Z,99145.59
2023-01-03T23:01:57.382Z,99143.19
2023-01-03T23:04:24.382Z,99131.47
2023-01-03T23:06:51.024Z,99136.78
2023-01-03T23:09:17.495Z,99129.84
2023-01-03T23:12:02.559Z,99137.06
2023-01-03T23:14:29.080Z,99117.84
2023-01-03T23:16:55.976Z,99120.97
2023-01-03T23:19:24.218Z,99122.03
2023-01-03T23:21:51.428Z,99105.16
2023-01-03T23:24:19.862Z,99114.47
2023-01-03T23:26:46.335Z,99115.72
2023-01-03T23:29:14.211Z,99094.16
2023-01-03T23:31:41.174Z,99093.94
2023-01-03T23:34:08.402Z,99087.84
2023-01-03T23:36:35.029Z,99085.66
2023-01-03T23:39:01.483Z,99084.28
2023-01-03T23:41:27.996Z,99078.63
2023-01-03T23:43:54.610Z,99080.75
2023-01-03T23:46:22.368Z,99073.78
2023-01-03T23:48:54.333Z,99060.69
2023-01-03T23:51:20.793Z,99059.91
2023-01-03T23:53:47.279Z,99065.22
2023-01-03T23:56:15.439Z,99056.69
2023-01-03T23:58:42.031Z,99047.03
